メインページ
METAR-TAF:

METAR-TAF

空港 :

エル・アルト国際空港

ラパス, ボリビア

緯度: 16-31S, 経度: 068-11W, 海抜: 4058m

現時点の気象観測

当レポートは1時間5分前の14:00(UTC)に作成
の風 8kt
気温 9°C
湿度 76%
気圧 1039 hPa
視程10km以上
高度1300ftの雲は散在している
高度7000ftの雲は散在している
高度20000ftの千切れ雲あり

METAR: SLLP 181400Z 10008KT 9999 SCT013 SCT070 BKN200 09/05 Q1039

時間: 11:05 (15:05 UTC)

予報

当レポートは4時間15分前の10:50(UTC)に作成
予報は18日の 12時(UTC)から 19日の 12時(UTC)まで有効
変向風 2kt
視程: 4000m
高度1300ftの雲は散在している
高度7000ftの千切れ雲あり
小雨, 近辺で霧
18日の 14時(UTC)から 18日の 16時(UTC)まで徐々に
南東の風 10kt
視程10km以上
高度1500ftの雲は散在している
高度1700ftの雲はほとんどない, 積乱雲.
高度7000ftの千切れ雲あり
18日の 17時(UTC)から 18日の 21時(UTC)まで一時的に
視程: 5000m
19日の 00時(UTC)から 19日の 02時(UTC)まで一時的に
視程: 5000m
激しい雷雨, 雨
19日の 03時(UTC)から 19日の 06時(UTC)まで徐々に
視程: 3000m
高度500ftの雲はほとんどない
高度1000ftの雲は散在している
高度7000ftの千切れ雲あり
小雨, 近辺で霧

TAF: SLLP 181050Z 1812/1912 VRB02KT 4000E -RA VCFG SCT013 BKN070 TX14/ 1820Z TN03/1910Z BECMG 1814/1816 13010KT 9999 NSW SCT015 FEW017CB BKN070 TEMPO 1817/1821 5000 VCTSSH TEMPO 1900/1902 5000 TSRA BECMG 1903/1906 3000E -RA VCFG FEW005 SCT010 BKN070

4,000以上の空港の気象観測と天気予報(METAR報とTAF報)

利用可能な観測所は地図上に黄色い丸と赤い丸で示す。

丸の上にカーソルを重ねると観測所名を参照できる。

次にクリックすると気象観測と天気予報を参照できる。

マップの切り替え:黒色「×」印の緑ボタンをクリックして拡大、「-」印の緑ボタンをクリックして縮小、緑色の三角印をクリックして隣りの地図に切り替え


METAR-TAF: